Highland, Utah
Current Conditions -  °F | °C
As of 8:49 PM on Saturday 24 Jan 2015 (Local Time) from KPVU Reporting Station
Broken Clouds Broken Clouds  
Wind Chill: 34°   Ceiling: 10000
Heat Index: 34°   Visibility: 10mi
Dew Point: 25°   Wind: 0mph
Humidity: 70%   Direction: NA
Pressure: 30.48"   Gusts: NA
Location:  40.4102°N, 111.814°W
Report Text: KPVU 250349Z 00000KT 10SM SCT070 BKN100 01/M04 A3048
Loading
Personal Weather Stations






























Interactive Weather Map New forecast layout! Learn more

10-Day Weather Forecast

Advertisements
Track Severe Weather on mobile